Time;durP1;ratioP1;P1;durP2;ratioP2;P2;SDS_P1;SDS_P2;PMS_P1;PMS_P2;Temp;Humidity;BMP_temperature;BMP_pressure;BME280_temperature;BME280_humidity;BME280_pressure;Samples;Min_cycle;Max_cycle;Signal;HPM_P1;HPM_P2
2024/03/24 00:01:09;;;;;;;10.30;5.82;;;;;;;4.52;100.00;99617.91;5109345;27;20087;-70
2024/03/24 00:03:39;;;;;;;10.20;5.55;;;;;;;4.68;100.00;99641.84;5091663;27;20027;-72
2024/03/24 00:06:06;;;;;;;10.18;5.75;;;;;;;4.78;100.00;99644.97;5115012;27;20039;-73
2024/03/24 00:08:33;;;;;;;9.18;5.75;;;;;;;4.80;100.00;99640.53;5094085;27;20050;-72
2024/03/24 00:10:59;;;;;;;8.55;5.35;;;;;;;4.82;100.00;99641.34;5097356;27;20137;-72
2024/03/24 00:13:27;;;;;;;8.60;5.13;;;;;;;4.76;100.00;99623.19;5102206;27;20035;-69
2024/03/24 00:15:53;;;;;;;7.30;4.80;;;;;;;4.78;100.00;99621.38;5112465;27;20111;-70
2024/03/24 00:18:22;;;;;;;8.98;4.85;;;;;;;4.78;100.00;99610.88;5111343;27;20047;-69
2024/03/24 00:20:49;;;;;;;10.15;5.13;;;;;;;4.86;100.00;99620.22;5088986;27;20047;-70
2024/03/24 00:23:16;;;;;;;9.35;5.03;;;;;;;4.85;100.00;99621.13;5091265;27;20566;-69
2024/03/24 00:25:42;;;;;;;8.23;4.75;;;;;;;4.74;100.00;99604.03;5108400;27;20039;-71
2024/03/24 00:28:09;;;;;;;8.43;4.95;;;;;;;4.84;100.00;99623.78;5095628;27;20042;-73
2024/03/24 00:30:36;;;;;;;11.70;6.10;;;;;;;4.81;100.00;99613.41;5078252;27;20581;-70
2024/03/24 00:33:03;;;;;;;8.30;5.15;;;;;;;4.74;100.00;99590.91;5093891;27;20032;-82
2024/03/24 00:35:31;;;;;;;6.90;5.43;;;;;;;4.86;100.00;99609.72;5098520;27;20036;-70
2024/03/24 00:37:58;;;;;;;7.40;5.03;;;;;;;4.85;100.00;99617.63;5108819;28;20043;-70
2024/03/24 00:40:24;;;;;;;7.57;5.65;;;;;;;4.79;100.00;99620.47;5094013;27;20547;-74
2024/03/24 00:42:51;;;;;;;11.20;5.32;;;;;;;4.79;100.00;99608.22;5094750;27;20042;-70
2024/03/24 00:45:17;;;;;;;9.45;5.72;;;;;;;4.78;100.00;99610.88;5091145;27;20067;-71
2024/03/24 00:47:43;;;;;;;9.73;5.43;;;;;;;4.76;100.00;99610.09;5120824;27;20512;-71
2024/03/24 00:50:12;;;;;;;11.43;5.22;;;;;;;4.75;100.00;99595.25;5098342;27;20082;-71
2024/03/24 00:52:40;;;;;;;9.57;5.40;;;;;;;4.75;100.00;99598.72;5108860;28;20073;-71
2024/03/24 00:55:08;;;;;;;7.73;5.43;;;;;;;4.78;100.00;99595.16;5109616;27;20043;-69
2024/03/24 00:57:34;;;;;;;8.18;5.68;;;;;;;4.83;100.00;99591.47;5115503;27;20133;-70
2024/03/24 01:00:00;;;;;;;7.47;5.55;;;;;;;4.87;100.00;99587.81;5094631;28;20125;-69
2024/03/24 01:02:27;;;;;;;6.20;4.53;;;;;;;4.90;100.00;99581.59;5112199;28;20408;-70
2024/03/24 01:04:53;;;;;;;11.93;5.30;;;;;;;4.92;100.00;99579.75;5109689;27;20516;-70
2024/03/24 01:07:21;;;;;;;8.13;5.03;;;;;;;4.97;100.00;99588.31;5120713;27;20038;-70
2024/03/24 01:09:51;;;;;;;8.48;4.45;;;;;;;5.02;100.00;99589.03;5101991;27;20154;-72
2024/03/24 01:12:20;;;;;;;7.85;4.75;;;;;;;5.03;100.00;99582.00;5095091;27;20424;-72
2024/03/24 01:14:46;;;;;;;9.93;5.32;;;;;;;5.06;100.00;99582.72;5114467;27;20051;-70
2024/03/24 01:17:12;;;;;;;10.60;5.15;;;;;;;4.97;100.00;99564.72;5127106;27;20134;-70
2024/03/24 01:19:38;;;;;;;7.78;5.30;;;;;;;5.03;100.00;99561.03;5102873;27;20064;-70
2024/03/24 01:22:05;;;;;;;7.65;5.07;;;;;;;5.15;100.00;99566.66;5088938;27;20042;-69
2024/03/24 01:24:31;;;;;;;9.43;5.80;;;;;;;5.12;100.00;99558.88;5112345;27;20063;-70
2024/03/24 01:27:00;;;;;;;7.60;5.22;;;;;;;4.89;100.00;99527.41;5099648;27;20067;-70
2024/03/24 01:29:25;;;;;;;8.20;5.30;;;;;;;5.07;100.00;99550.31;5117539;27;20047;-71
2024/03/24 01:31:52;;;;;;;8.23;4.88;;;;;;;5.05;100.00;99549.53;5120364;27;21329;-72
2024/03/24 01:34:18;;;;;;;3.65;2.60;;;;;;;4.88;100.00;99538.81;5114042;27;20055;-70
2024/03/24 01:36:45;;;;;;;5.65;3.00;;;;;;;4.64;100.00;99542.34;5118063;27;20100;-72
2024/03/24 01:39:11;;;;;;;4.95;2.97;;;;;;;4.47;100.00;99538.56;5111864;27;20056;-69
2024/03/24 01:41:38;;;;;;;6.28;3.95;;;;;;;4.38;100.00;99527.56;5119707;27;20079;-72
2024/03/24 01:44:06;;;;;;;4.75;3.67;;;;;;;4.23;100.00;99511.47;5111603;27;20472;-70
2024/03/24 01:46:32;;;;;;;7.75;4.15;;;;;;;4.27;100.00;99498.25;5115210;27;20513;-75
2024/03/24 01:48:58;;;;;;;7.03;4.85;;;;;;;4.23;100.00;99484.41;5112235;27;20110;-71
2024/03/24 01:51:26;;;;;;;6.97;4.97;;;;;;;4.33;100.00;99493.66;5103753;27;20064;-69
2024/03/24 01:53:54;;;;;;;8.88;5.50;;;;;;;4.40;100.00;99505.63;5116558;27;20054;-76
2024/03/24 01:56:21;;;;;;;8.05;5.57;;;;;;;4.39;100.00;99498.69;5121121;27;20035;-73
2024/03/24 01:58:46;;;;;;;8.27;5.28;;;;;;;4.37;100.00;99497.03;5123541;27;20059;-70
2024/03/24 02:01:15;;;;;;;7.63;5.45;;;;;;;4.29;100.00;99473.69;5111103;27;20080;-70
2024/03/24 02:03:42;;;;;;;8.93;5.35;;;;;;;4.28;100.00;99471.13;5118369;27;20035;-70
2024/03/24 02:06:09;;;;;;;9.98;5.55;;;;;;;4.20;100.00;99459.16;5133254;27;20472;-70
2024/03/24 02:08:35;;;;;;;7.88;5.57;;;;;;;4.30;100.00;99478.03;5109563;27;20100;-73
2024/03/24 02:11:02;;;;;;;10.35;6.35;;;;;;;4.31;100.00;99476.25;5101196;27;20104;-71
2024/03/24 02:13:29;;;;;;;9.07;5.80;;;;;;;4.31;100.00;99471.03;5075822;27;20066;-75
2024/03/24 02:15:56;;;;;;;8.57;5.63;;;;;;;4.38;100.00;99478.63;5128749;27;20055;-70
2024/03/24 02:18:24;;;;;;;7.95;5.30;;;;;;;4.20;100.00;99453.06;5103711;27;20077;-70
2024/03/24 02:20:51;;;;;;;9.98;5.78;;;;;;;4.37;100.00;99481.28;5094085;27;20074;-72
2024/03/24 02:23:18;;;;;;;7.88;5.25;;;;;;;4.40;100.00;99482.03;5110908;27;20082;-73
2024/03/24 02:25:46;;;;;;;8.05;5.18;;;;;;;4.45;100.00;99494.97;5110831;27;21279;-72
2024/03/24 02:28:13;;;;;;;6.82;4.63;;;;;;;4.42;100.00;99474.09;5112450;27;20088;-70
2024/03/24 02:30:40;;;;;;;7.50;4.47;;;;;;;4.59;100.00;99497.94;5107440;27;20059;-70
2024/03/24 02:33:07;;;;;;;8.00;4.00;;;;;;;4.64;100.00;99490.75;5108171;27;20157;-73
2024/03/24 02:35:34;;;;;;;4.57;3.72;;;;;;;4.69;100.00;99493.22;5082654;27;20745;-71
2024/03/24 02:38:00;;;;;;;6.25;3.70;;;;;;;4.75;100.00;99492.97;5108971;27;20063;-71
2024/03/24 02:40:28;;;;;;;5.45;3.10;;;;;;;4.75;100.00;99492.97;5097928;27;20051;-72
2024/03/24 02:42:54;;;;;;;5.40;2.92;;;;;;;4.60;100.00;99476.03;5092129;27;20047;-70
2024/03/24 02:45:21;;;;;;;5.45;3.05;;;;;;;4.69;100.00;99494.06;5091313;27;20043;-73
2024/03/24 02:47:47;;;;;;;5.15;2.60;;;;;;;4.50;100.00;99472.06;5113846;27;20074;-72
2024/03/24 02:50:13;;;;;;;4.57;2.58;;;;;;;4.66;100.00;99483.69;5093140;27;20039;-70
2024/03/24 02:52:39;;;;;;;3.47;2.20;;;;;;;4.62;100.00;99487.34;5072634;27;20059;-70
2024/03/24 02:55:06;;;;;;;4.45;2.60;;;;;;;4.59;100.00;99483.06;5110442;27;20051;-70
2024/03/24 02:57:34;;;;;;;4.55;2.67;;;;;;;4.64;100.00;99475.03;5095210;27;20039;-74
2024/03/24 03:00:01;;;;;;;4.30;2.35;;;;;;;4.68;100.00;99462.66;5096765;27;20469;-71
2024/03/24 03:02:28;;;;;;;3.95;2.10;;;;;;;4.68;100.00;99462.66;5094529;27;20050;-71
2024/03/24 03:04:55;;;;;;;3.55;1.92;;;;;;;4.70;100.00;99463.47;5093426;27;20592;-71
2024/03/24 03:07:20;;;;;;;3.03;1.75;;;;;;;4.71;100.00;99467.78;5110322;27;20468;-70
2024/03/24 03:09:47;;;;;;;3.92;1.85;;;;;;;4.78;100.00;99462.25;5098817;27;20039;-73
2024/03/24 03:12:13;;;;;;;2.88;1.80;;;;;;;4.77;100.00;99462.28;5093469;27;20039;-70
2024/03/24 03:14:41;;;;;;;2.80;1.50;;;;;;;4.68;100.00;99453.03;5094712;27;20668;-71
2024/03/24 03:17:08;;;;;;;3.42;1.55;;;;;;;4.65;100.00;99441.78;5081463;27;20085;-70
2024/03/24 03:19:35;;;;;;;1.73;1.13;;;;;;;4.66;100.00;99459.25;5076774;27;20039;-69
2024/03/24 03:22:03;;;;;;;2.80;1.30;;;;;;;4.61;100.00;99459.41;5110437;27;20035;-72
2024/03/24 03:24:29;;;;;;;1.35;1.02;;;;;;;4.42;100.00;99430.38;5093179;27;20076;-71
2024/03/24 03:26:55;;;;;;;1.38;1.10;;;;;;;4.64;100.00;99459.28;5095194;27;20572;-70
2024/03/24 03:29:22;;;;;;;1.45;1.00;;;;;;;4.38;100.00;99402.59;5113810;27;20072;-70
2024/03/24 03:31:49;;;;;;;2.80;1.10;;;;;;;4.65;100.00;99442.66;5092152;27;20102;-71
2024/03/24 03:34:16;;;;;;;0.82;0.82;;;;;;;4.65;100.00;99445.28;5089871;27;20050;-71
2024/03/24 03:36:42;;;;;;;0.90;0.90;;;;;;;4.58;100.00;99444.63;5111839;27;20115;-72
2024/03/24 03:39:09;;;;;;;1.27;0.80;;;;;;;4.55;100.00;99451.78;5092978;27;20126;-72
2024/03/24 03:41:35;;;;;;;1.70;1.10;;;;;;;4.51;100.00;99451.03;5087739;28;20078;-70
2024/03/24 03:44:02;;;;;;;0.80;0.80;;;;;;;4.54;100.00;99452.69;5107450;27;20739;-71
2024/03/24 03:46:28;;;;;;;1.95;1.00;;;;;;;4.47;100.00;99436.31;5112259;27;20614;-74
2024/03/24 03:48:56;;;;;;;2.63;1.15;;;;;;;4.55;100.00;99454.41;5111276;27;20039;-70
2024/03/24 03:51:29;;;;;;;1.98;0.90;;;;;;;4.51;100.00;99448.41;5093067;27;20047;-71
2024/03/24 03:53:58;;;;;;;1.45;0.88;;;;;;;4.68;100.00;99446.94;5109220;27;20511;-71
2024/03/24 03:56:24;;;;;;;1.67;0.80;;;;;;;4.74;100.00;99459.78;5108621;27;20063;-70
2024/03/24 03:58:50;;;;;;;1.25;0.80;;;;;;;4.65;100.00;99447.91;5106256;27;20118;-71
2024/03/24 04:01:17;;;;;;;0.80;0.70;;;;;;;4.32;100.00;99394.09;5108817;27;20805;-71
2024/03/24 04:03:43;;;;;;;1.17;0.80;;;;;;;4.59;100.00;99448.97;5090382;27;20062;-71
2024/03/24 04:06:10;;;;;;;2.50;0.82;;;;;;;4.40;100.00;99420.91;5096631;27;20043;-71
2024/03/24 04:08:38;;;;;;;2.60;1.10;;;;;;;4.40;100.00;99431.38;5112462;27;20043;-71
2024/03/24 04:11:05;;;;;;;2.28;0.85;;;;;;;4.45;100.00;99434.66;5113226;27;20035;-74
2024/03/24 04:13:32;;;;;;;1.17;0.90;;;;;;;4.52;100.00;99429.16;5091131;27;20536;-73
2024/03/24 04:15:58;;;;;;;2.90;0.80;;;;;;;4.48;100.00;99430.19;5095825;27;20082;-75
2024/03/24 04:18:25;;;;;;;3.20;0.80;;;;;;;4.51;100.00;99426.59;5095178;27;20046;-70
2024/03/24 04:20:51;;;;;;;2.67;1.00;;;;;;;4.40;100.00;99419.13;5094732;27;20118;-71
2024/03/24 04:23:19;;;;;;;1.15;0.60;;;;;;;4.34;100.00;99419.34;5079669;27;20093;-72
2024/03/24 04:25:48;;;;;;;1.65;0.90;;;;;;;4.35;100.00;99433.31;5104272;27;20042;-70
2024/03/24 04:28:15;;;;;;;1.92;0.90;;;;;;;4.44;100.00;99440.81;5095922;27;20131;-71
2024/03/24 04:30:41;;;;;;;1.25;1.08;;;;;;;4.35;100.00;99425.44;5100487;27;20566;-71
2024/03/24 04:33:07;;;;;;;2.50;1.00;;;;;;;4.34;100.00;99427.22;5088014;27;20048;-70
2024/03/24 04:35:33;;;;;;;2.13;1.33;;;;;;;4.34;100.00;99421.13;5106609;27;20035;-71
2024/03/24 04:38:00;;;;;;;3.17;1.00;;;;;;;4.47;100.00;99433.72;5093841;27;20091;-70
2024/03/24 04:40:28;;;;;;;2.45;0.93;;;;;;;4.51;100.00;99432.69;5091913;27;20066;-72
2024/03/24 04:42:55;;;;;;;2.80;1.00;;;;;;;4.57;100.00;99434.19;5093462;27;20471;-71
2024/03/24 04:45:22;;;;;;;1.30;0.90;;;;;;;4.58;100.00;99439.38;5092519;28;20059;-70
2024/03/24 04:47:49;;;;;;;2.80;0.90;;;;;;;4.49;100.00;99413.53;5075110;28;20075;-72
2024/03/24 04:50:15;;;;;;;3.05;1.10;;;;;;;4.58;100.00;99428.03;5111464;28;20051;-73
2024/03/24 04:52:41;;;;;;;3.08;1.25;;;;;;;4.55;100.00;99423.81;5117368;27;20115;-71
2024/03/24 04:55:12;;;;;;;38.72;22.70;;;;;;;4.57;100.00;99423.72;5094416;28;20046;-70
2024/03/24 04:57:40;;;;;;;10.98;7.43;;;;;;;4.40;100.00;99392.94;5110876;28;20461;-70
2024/03/24 05:00:10;;;;;;;2.70;1.52;;;;;;;4.55;100.00;99418.56;5095431;28;20063;-71
2024/03/24 05:02:37;;;;;;;2.83;1.10;;;;;;;4.25;100.00;99367.25;5107441;28;20062;-70
2024/03/24 05:05:04;;;;;;;3.75;1.50;;;;;;;4.59;100.00;99428.00;5109656;27;21380;-70
2024/03/24 05:07:31;;;;;;;2.05;0.90;;;;;;;4.59;100.00;99416.66;5095043;28;20036;-75
2024/03/24 05:09:57;;;;;;;1.77;1.13;;;;;;;4.49;100.00;99391.72;5111918;28;20036;-76
2024/03/24 05:12:24;;;;;;;1.92;1.17;;;;;;;4.56;100.00;99408.94;5091698;28;20044;-71
2024/03/24 05:14:52;;;;;;;2.03;1.00;;;;;;;4.54;100.00;99410.75;5110219;28;20059;-70
2024/03/24 05:17:19;;;;;;;2.13;1.17;;;;;;;4.48;100.00;99403.09;5098312;28;20465;-70
2024/03/24 05:19:45;;;;;;;2.25;0.90;;;;;;;4.51;100.00;99413.47;5108812;28;20059;-72
2024/03/24 05:22:12;;;;;;;2.78;1.10;;;;;;;4.58;100.00;99421.03;5092672;28;20100;-71
2024/03/24 05:24:38;;;;;;;2.38;1.13;;;;;;;4.57;100.00;99421.09;5093798;28;20078;-73
2024/03/24 05:27:05;;;;;;;1.05;0.98;;;;;;;4.49;100.00;99408.28;5089721;27;20047;-71
2024/03/24 05:29:31;;;;;;;1.33;1.20;;;;;;;4.56;100.00;99406.31;5111465;28;20066;-71
2024/03/24 05:32:00;;;;;;;2.30;1.13;;;;;;;4.59;100.00;99401.78;5075039;28;20040;-71
2024/03/24 05:34:26;;;;;;;2.08;1.00;;;;;;;4.55;100.00;99400.22;5107071;28;20460;-71
2024/03/24 05:36:53;;;;;;;4.32;1.10;;;;;;;4.53;100.00;99380.19;5110053;28;20054;-71
2024/03/24 05:39:20;;;;;;;3.65;1.15;;;;;;;4.65;100.00;99411.19;5112224;28;20054;-72
2024/03/24 05:41:48;;;;;;;3.55;1.23;;;;;;;4.68;100.00;99403.19;5092646;28;20065;-71
2024/03/24 05:44:16;;;;;;;1.65;1.05;;;;;;;4.55;100.00;99383.63;5095016;28;20067;-72
2024/03/24 05:46:43;;;;;;;2.45;1.10;;;;;;;4.71;100.00;99402.22;5093419;28;20071;-71
2024/03/24 05:49:11;;;;;;;1.80;1.17;;;;;;;4.72;100.00;99401.31;5109149;27;20122;-72
2024/03/24 05:51:37;;;;;;;2.60;1.50;;;;;;;4.68;100.00;99397.09;5110810;27;20077;-70
2024/03/24 05:54:03;;;;;;;5.10;1.85;;;;;;;4.56;100.00;99394.03;5110699;27;20528;-70
2024/03/24 05:56:30;;;;;;;2.90;1.75;;;;;;;4.47;100.00;99394.38;5110425;27;20063;-72
2024/03/24 05:58:57;;;;;;;2.17;1.52;;;;;;;4.56;100.00;99399.25;5103512;27;20054;-71
2024/03/24 06:01:24;;;;;;;3.53;1.50;;;;;;;4.53;100.00;99393.31;5116106;27;20073;-72
2024/03/24 06:03:52;;;;;;;3.30;1.83;;;;;;;4.56;100.00;99401.88;5079390;27;20066;-70
2024/03/24 06:06:20;;;;;;;3.00;1.75;;;;;;;4.54;100.00;99382.75;5090826;28;20082;-70
2024/03/24 06:08:46;;;;;;;2.15;1.50;;;;;;;4.55;100.00;99397.59;5094285;27;20066;-71
2024/03/24 06:11:13;;;;;;;2.63;1.73;;;;;;;4.46;100.00;99371.69;5111803;27;20106;-71
2024/03/24 06:13:40;;;;;;;4.28;1.90;;;;;;;4.59;100.00;99396.53;5113266;27;20437;-76
2024/03/24 06:16:10;;;;;;;3.22;1.80;;;;;;;4.62;100.00;99386.84;5098483;27;20130;-70
2024/03/24 06:18:37;;;;;;;3.13;1.55;;;;;;;4.61;100.00;99382.50;5116903;27;20035;-69
2024/03/24 06:21:06;;;;;;;3.92;1.42;;;;;;;4.42;100.00;99346.50;5095253;27;20042;-70
2024/03/24 06:23:33;;;;;;;1.65;1.33;;;;;;;4.47;100.00;99362.94;5110721;27;20128;-71
2024/03/24 06:25:59;;;;;;;2.70;1.70;;;;;;;4.47;100.00;99360.31;5087907;27;20083;-70
2024/03/24 06:28:25;;;;;;;1.75;1.30;;;;;;;4.45;100.00;99345.53;5112918;27;20063;-70
2024/03/24 06:30:52;;;;;;;3.22;1.70;;;;;;;4.50;100.00;99359.34;5113189;27;20050;-70
2024/03/24 06:33:18;;;;;;;4.60;1.40;;;;;;;4.58;100.00;99376.47;5075843;28;20650;-70
2024/03/24 06:35:45;;;;;;;2.10;1.48;;;;;;;4.66;100.00;99394.53;5111777;27;20110;-70
2024/03/24 06:38:10;;;;;;;2.20;1.40;;;;;;;4.69;100.00;99394.44;5115236;27;20078;-71
2024/03/24 06:40:39;;;;;;;2.17;1.60;;;;;;;4.71;100.00;99402.22;5102583;27;20039;-71
2024/03/24 06:43:06;;;;;;;2.05;1.52;;;;;;;4.71;100.00;99387.34;5109977;27;20093;-70
2024/03/24 06:45:35;;;;;;;1.90;1.20;;;;;;;4.75;100.00;99388.06;5114107;27;20658;-71
2024/03/24 06:48:01;;;;;;;2.22;1.20;;;;;;;4.87;100.00;99392.84;5109603;27;20087;-70
2024/03/24 06:50:28;;;;;;;2.85;1.70;;;;;;;4.85;100.00;99385.03;5110064;28;20150;-72
2024/03/24 06:52:55;;;;;;;2.22;1.23;;;;;;;4.79;100.00;99392.28;5114811;27;20066;-71
2024/03/24 06:55:22;;;;;;;2.92;1.77;;;;;;;4.85;100.00;99395.53;5112166;27;20074;-75
2024/03/24 06:57:50;;;;;;;3.08;1.85;;;;;;;4.79;100.00;99395.75;5111792;27;20500;-73
2024/03/24 07:00:18;;;;;;;2.55;1.70;;;;;;;4.91;100.00;99391.78;5115567;27;20523;-76
2024/03/24 07:02:45;;;;;;;2.42;1.52;;;;;;;4.96;100.00;99386.38;5112253;28;20063;-71
2024/03/24 07:05:13;;;;;;;4.97;2.92;;;;;;;5.06;100.00;99385.06;5106743;27;21063;-70
2024/03/24 07:07:39;;;;;;;3.17;1.70;;;;;;;5.13;100.00;99387.41;5114587;27;20039;-71
2024/03/24 07:10:07;;;;;;;4.18;1.70;;;;;;;4.83;100.00;99354.53;5092257;27;20649;-70
2024/03/24 07:12:35;;;;;;;3.83;2.03;;;;;;;5.12;100.00;99379.59;5097100;27;20122;-78
2024/03/24 07:15:04;;;;;;;3.08;1.70;;;;;;;5.04;100.00;99374.63;5094462;27;20039;-70
2024/03/24 07:17:30;;;;;;;4.43;1.77;;;;;;;4.86;100.00;99359.66;5114138;27;20059;-70
2024/03/24 07:19:58;;;;;;;2.97;1.77;;;;;;;4.99;100.00;99394.13;5096963;27;20361;-73
2024/03/24 07:22:26;;;;;;;3.03;1.90;;;;;;;5.05;100.00;99384.22;5101429;27;20030;-71
2024/03/24 07:24:52;;;;;;;3.35;2.10;;;;;;;5.18;100.00;99385.44;5108043;27;20035;-71
2024/03/24 07:27:19;;;;;;;4.60;1.80;;;;;;;5.16;100.00;99371.53;5094511;27;20039;-71
2024/03/24 07:29:45;;;;;;;3.70;2.35;;;;;;;5.03;100.00;99338.00;5096489;27;20057;-70
2024/03/24 07:32:13;;;;;;;6.40;1.95;;;;;;;5.33;100.00;99377.84;5110699;27;20134;-70
2024/03/24 07:34:41;;;;;;;2.50;1.95;;;;;;;5.43;100.00;99387.03;5098175;27;20044;-70
2024/03/24 07:37:08;;;;;;;2.85;2.00;;;;;;;5.50;100.00;99391.13;5108077;27;20142;-71
2024/03/24 07:39:34;;;;;;;5.22;2.08;;;;;;;5.50;100.00;99367.50;5103537;27;20061;-70
2024/03/24 07:42:01;;;;;;;5.70;2.20;;;;;;;5.29;100.00;99343.00;5093255;28;20421;-70
2024/03/24 07:44:27;;;;;;;6.10;2.10;;;;;;;5.56;100.00;99369.84;5091651;27;20462;-71
2024/03/24 07:46:53;;;;;;;3.63;2.33;;;;;;;5.59;100.00;99372.34;5107403;27;20047;-72
2024/03/24 07:49:22;;;;;;;4.80;2.20;;;;;;;5.59;100.00;99353.97;5113267;27;20565;-69
2024/03/24 07:51:49;;;;;;;4.70;2.30;;;;;;;5.71;100.00;99366.56;5117321;27;20039;-71
2024/03/24 07:54:15;;;;;;;6.75;2.72;;;;;;;5.77;100.00;99379.44;5109040;27;20047;-78
2024/03/24 07:56:42;;;;;;;4.75;1.95;;;;;;;5.76;100.00;99390.00;5131163;27;20044;-75
2024/03/24 07:59:09;;;;;;;8.55;2.22;;;;;;;5.66;100.00;99378.19;5134860;27;20110;-71
2024/03/24 08:01:38;;;;;;;4.75;2.08;;;;;;;5.37;100.00;99345.28;5113142;27;20043;-70
2024/03/24 08:04:04;;;;;;;6.82;2.60;;;;;;;5.58;100.00;99383.75;5114625;27;20035;-70
2024/03/24 08:06:32;;;;;;;2.90;2.25;;;;;;;5.50;100.00;99380.63;5106332;27;20056;-71
2024/03/24 08:08:58;;;;;;;5.25;2.28;;;;;;;5.59;100.00;99381.06;5111361;27;20073;-71
2024/03/24 08:11:25;;;;;;;7.05;2.25;;;;;;;5.55;100.00;99391.78;5112342;27;20039;-72
2024/03/24 08:13:52;;;;;;;6.45;2.88;;;;;;;5.43;100.00;99373.91;5094129;27;20571;-70
2024/03/24 08:16:21;;;;;;;5.88;2.60;;;;;;;5.10;100.00;99318.44;5070961;28;20127;-71
2024/03/24 08:18:48;;;;;;;6.28;3.08;;;;;;;5.22;100.00;99313.53;5084981;28;20070;-69
2024/03/24 08:21:17;;;;;;;7.65;2.88;;;;;;;5.73;100.00;99395.38;5084374;28;20058;-70
2024/03/24 08:23:45;;;;;;;6.32;2.85;;;;;;;5.83;100.00;99394.06;5083059;28;20112;-70
2024/03/24 08:26:12;;;;;;;6.85;3.47;;;;;;;5.87;100.00;99396.50;5086894;28;20474;-70
2024/03/24 08:28:38;;;;;;;4.60;2.95;;;;;;;5.63;100.00;99366.91;5092957;28;20039;-70
2024/03/24 08:31:05;;;;;;;5.90;3.30;;;;;;;5.85;100.00;99400.94;5091244;28;20039;-71
2024/03/24 08:33:31;;;;;;;8.73;3.53;;;;;;;5.45;100.00;99337.94;5084719;28;20059;-70
2024/03/24 08:35:58;;;;;;;5.43;3.15;;;;;;;5.83;100.00;99394.91;5087066;28;20060;-73
2024/03/24 08:38:23;;;;;;;7.07;4.07;;;;;;;5.94;100.00;99397.13;5084082;28;20059;-71
2024/03/24 08:40:51;;;;;;;7.80;3.80;;;;;;;5.81;100.00;99388.91;5068950;28;20066;-72
2024/03/24 08:43:17;;;;;;;7.63;4.20;;;;;;;5.83;100.00;99388.81;5088000;28;20063;-70
2024/03/24 08:45:44;;;;;;;8.07;3.55;;;;;;;6.02;100.00;99409.91;5104521;28;20070;-71
2024/03/24 08:48:10;;;;;;;7.07;3.95;;;;;;;6.15;100.00;99403.19;5087250;28;20102;-71
2024/03/24 08:50:36;;;;;;;7.82;3.88;;;;;;;6.23;100.00;99406.34;5075607;28;20493;-71
2024/03/24 08:53:04;;;;;;;10.35;4.20;;;;;;;6.32;100.00;99406.75;5072626;28;20063;-73
2024/03/24 08:55:32;;;;;;;8.73;4.65;;;;;;;6.36;100.00;99404.84;5091958;28;20442;-70
2024/03/24 08:58:02;;;;;;;8.30;4.40;;;;;;;6.25;100.00;99391.34;5068771;28;20140;-71
2024/03/24 09:00:30;;;;;;;9.60;3.92;;;;;;;6.10;100.00;99381.53;5090751;28;20039;-72
2024/03/24 09:02:57;;;;;;;9.07;4.18;;;;;;;6.12;100.00;99401.56;5083594;28;20042;-73
2024/03/24 09:05:27;;;;;;;10.55;4.22;;;;;;;6.11;100.00;99397.22;5089276;28;20122;-71
2024/03/24 09:07:53;;;;;;;7.95;4.20;;;;;;;6.23;100.00;99390.56;5088053;28;20058;-70
2024/03/24 09:10:21;;;;;;;8.77;4.40;;;;;;;6.23;100.00;99373.00;5077657;28;20044;-70
2024/03/24 09:12:48;;;;;;;8.27;4.68;;;;;;;6.45;100.00;99372.03;5090380;28;20120;-71
2024/03/24 09:15:18;;;;;;;9.25;4.47;;;;;;;6.64;100.00;99376.34;5089818;28;20075;-72
2024/03/24 09:17:44;;;;;;;7.25;4.38;;;;;;;6.98;100.00;99375.59;5097145;27;20082;-74
2024/03/24 09:20:15;;;;;;;8.38;4.32;;;;;;;7.01;100.00;99371.97;5104470;28;20082;-76
2024/03/24 09:22:41;;;;;;;6.03;3.80;;;;;;;6.98;100.00;99351.06;5128226;28;20062;-70
2024/03/24 09:25:08;;;;;;;8.23;3.90;;;;;;;7.28;100.00;99364.47;5108458;27;20117;-72
2024/03/24 09:27:34;;;;;;;11.90;4.25;;;;;;;7.15;100.00;99344.97;5129211;27;20536;-71
2024/03/24 09:30:01;;;;;;;7.13;4.05;;;;;;;7.18;100.00;99352.72;5129616;27;20053;-71
2024/03/24 09:32:28;;;;;;;6.15;3.90;;;;;;;7.18;100.00;99366.72;5132426;27;20386;-79
2024/03/24 09:34:55;;;;;;;6.68;3.63;;;;;;;7.10;100.00;99373.28;5124627;27;20067;-71
2024/03/24 09:37:21;;;;;;;8.60;3.90;;;;;;;6.82;100.00;99340.41;5076638;27;20078;-72
2024/03/24 09:39:48;;;;;;;11.27;3.78;;;;;;;6.90;100.00;99361.13;5116537;27;20385;-71
2024/03/24 09:42:15;;;;;;;5.38;3.90;;;;;;;6.92;100.00;99362.75;5129508;27;20130;-70
2024/03/24 09:44:42;;;;;;;7.22;3.50;;;;;;;6.81;100.00;99329.97;5104493;27;20063;-70
2024/03/24 09:47:08;;;;;;;6.85;3.75;;;;;;;7.25;100.00;99362.00;5105443;27;20066;-70
2024/03/24 09:49:41;;;;;;;7.18;3.38;;;;;;;7.43;100.00;99363.72;5132882;27;20512;-71
2024/03/24 09:52:10;;;;;;;7.82;3.40;;;;;;;7.42;100.00;99354.09;5127693;27;20075;-73
2024/03/24 09:54:38;;;;;;;8.18;3.78;;;;;;;7.24;100.00;99344.53;5111337;27;20040;-70
2024/03/24 09:57:05;;;;;;;5.50;3.08;;;;;;;7.34;100.00;99362.41;5125201;27;20070;-72
2024/03/24 09:59:37;;;;;;;9.40;3.42;;;;;;;7.30;100.00;99352.94;5126250;27;20043;-72
2024/03/24 10:02:03;;;;;;;7.93;2.85;;;;;;;7.36;100.00;99364.97;5129779;27;20077;-73
2024/03/24 10:04:32;;;;;;;5.40;3.20;;;;;;;7.37;100.00;99357.00;5112089;27;20050;-70
2024/03/24 10:06:59;;;;;;;4.70;3.08;;;;;;;7.36;100.00;99351.78;5124306;27;20035;-72
2024/03/24 10:09:26;;;;;;;5.55;2.78;;;;;;;7.29;100.00;99353.03;5131272;27;20134;-72
2024/03/24 10:11:53;;;;;;;8.27;3.00;;;;;;;7.30;100.00;99350.31;5115638;27;20047;-69
2024/03/24 10:14:25;;;;;;;5.15;2.97;;;;;;;7.21;100.00;99353.41;5131069;27;20089;-72
2024/03/24 10:16:52;;;;;;;6.03;3.17;;;;;;;7.09;100.00;99367.16;5111612;27;20462;-74
2024/03/24 10:19:24;;;;;;;8.60;3.55;;;;;;;6.90;100.00;99346.19;5127915;27;20039;-70
2024/03/24 10:21:51;;;;;;;5.03;3.20;;;;;;;6.95;100.00;99369.63;5130603;27;20104;-73
2024/03/24 10:24:19;;;;;;;5.45;2.53;;;;;;;6.77;100.00;99375.78;5109613;27;20066;-72
2024/03/24 10:26:45;;;;;;;5.13;3.35;;;;;;;6.54;100.00;99380.34;5121733;27;20495;-72
2024/03/24 10:29:14;;;;;;;6.32;2.42;;;;;;;6.15;100.00;99397.94;5125236;27;20066;-69
2024/03/24 10:31:40;;;;;;;6.53;2.67;;;;;;;5.87;100.00;99388.59;5109913;27;20035;-70
2024/03/24 10:34:07;;;;;;;7.72;2.63;;;;;;;5.75;100.00;99397.03;5119843;27;20051;-70
2024/03/24 10:36:37;;;;;;;5.50;3.00;;;;;;;5.81;100.00;99394.16;5101317;27;21960;-69
2024/03/24 10:39:06;;;;;;;6.57;2.80;;;;;;;5.93;100.00;99400.66;5117606;27;20054;-70
2024/03/24 10:41:35;;;;;;;5.07;2.90;;;;;;;6.06;100.00;99387.84;5114312;27;20043;-70
2024/03/24 10:44:03;;;;;;;3.65;2.60;;;;;;;6.29;100.00;99387.66;5109320;27;20113;-69
2024/03/24 10:46:31;;;;;;;5.40;2.53;;;;;;;6.61;100.00;99388.81;5107292;27;20046;-68
2024/03/24 10:48:59;;;;;;;7.25;2.78;;;;;;;6.98;100.00;99366.84;5117386;27;20166;-69
2024/03/24 10:51:29;;;;;;;3.70;2.35;;;;;;;7.33;100.00;99376.50;5102558;27;20039;-71
2024/03/24 10:54:02;;;;;;;5.32;2.85;;;;;;;7.26;100.00;99340.00;5119739;27;20551;-70
2024/03/24 10:56:30;;;;;;;5.13;2.80;;;;;;;7.34;100.00;99329.94;5128037;27;20416;-71
2024/03/24 10:59:00;;;;;;;6.00;2.70;;;;;;;7.50;100.00;99337.94;5126237;27;20184;-73
2024/03/24 11:01:26;;;;;;;4.60;2.58;;;;;;;7.78;100.00;99348.72;5126733;27;20152;-72
2024/03/24 11:03:54;;;;;;;7.80;2.60;;;;;;;7.92;100.00;99348.84;5126025;27;20061;-70
2024/03/24 11:06:20;;;;;;;6.32;2.92;;;;;;;7.79;100.00;99321.44;5108254;27;20066;-70
2024/03/24 11:08:47;;;;;;;6.97;2.63;;;;;;;7.97;100.00;99333.66;5108004;27;20906;-71
2024/03/24 11:11:12;;;;;;;6.10;2.75;;;;;;;8.22;100.00;99334.97;5125978;27;20825;-70
2024/03/24 11:13:40;;;;;;;6.07;2.75;;;;;;;8.47;100.00;99330.09;5109684;27;20059;-70
2024/03/24 11:16:09;;;;;;;6.60;2.70;;;;;;;8.55;100.00;99335.78;5125611;27;20418;-72
2024/03/24 11:18:37;;;;;;;;;;;;;;;8.50;100.00;99324.63;5110269;27;20152;-70
2024/03/24 11:21:05;;;;;;;7.90;2.75;;;;;;;8.66;100.00;99311.44;5113458;27;19958;-70
2024/03/24 11:23:37;;;;;;;5.22;2.45;;;;;;;8.95;100.00;99315.09;5108803;27;20063;-75
2024/03/24 11:26:05;;;;;;;7.18;2.53;;;;;;;8.95;100.00;99315.09;5100809;27;20067;-70
2024/03/24 11:28:42;;;;;;;2.63;1.88;;;;;;;8.51;100.00;99331.63;5120995;27;20520;-71
2024/03/24 11:31:31;;;;;;;3.92;2.40;;;;;;;8.07;100.00;99326.94;5124240;27;20043;-71
2024/03/24 11:34:04;;;;;;;4.30;2.10;;;;;;;7.89;100.00;99335.84;5109472;27;20070;-69